sensor_id;sensor_type;location;lat;lon;timestamp;temperature;humidity
27026;DHT22;14565;48.626;8.978;2024-03-23T00:54:21;9.00;99.90
27026;DHT22;14565;48.626;8.978;2024-03-23T00:56:47;9.10;99.90
27026;DHT22;14565;48.626;8.978;2024-03-23T00:59:13;9.10;99.90
27026;DHT22;14565;48.626;8.978;2024-03-23T01:01:39;9.30;99.90
27026;DHT22;14565;48.626;8.978;2024-03-23T01:04:04;9.50;99.90
27026;DHT22;14565;48.626;8.978;2024-03-23T01:06:30;9.60;99.90
27026;DHT22;14565;48.626;8.978;2024-03-23T01:08:56;9.60;99.90
27026;DHT22;14565;48.626;8.978;2024-03-23T01:11:21;9.70;99.90
27026;DHT22;14565;48.626;8.978;2024-03-23T01:13:47;9.60;99.90
27026;DHT22;14565;48.626;8.978;2024-03-23T01:16:12;9.70;99.90
27026;DHT22;14565;48.626;8.978;2024-03-23T01:18:38;9.80;99.90
27026;DHT22;14565;48.626;8.978;2024-03-23T01:21:04;9.90;99.90
27026;DHT22;14565;48.626;8.978;2024-03-23T01:23:29;10.00;99.90
27026;DHT22;14565;48.626;8.978;2024-03-23T01:25:55;10.00;99.90
27026;DHT22;14565;48.626;8.978;2024-03-23T01:28:21;10.10;99.90
27026;DHT22;14565;48.626;8.978;2024-03-23T01:30:48;10.10;99.90
27026;DHT22;14565;48.626;8.978;2024-03-23T01:33:13;10.10;99.90
27026;DHT22;14565;48.626;8.978;2024-03-23T01:35:39;10.00;99.90
27026;DHT22;14565;48.626;8.978;2024-03-23T01:38:05;10.00;99.90
27026;DHT22;14565;48.626;8.978;2024-03-23T01:40:31;9.90;99.90
27026;DHT22;14565;48.626;8.978;2024-03-23T01:43:07;10.00;99.90
27026;DHT22;14565;48.626;8.978;2024-03-23T01:45:33;10.00;99.90
27026;DHT22;14565;48.626;8.978;2024-03-23T01:47:59;10.10;99.90
27026;DHT22;14565;48.626;8.978;2024-03-23T01:50:26;10.10;99.90
27026;DHT22;14565;48.626;8.978;2024-03-23T01:52:52;10.00;99.90
27026;DHT22;14565;48.626;8.978;2024-03-23T01:55:17;10.00;99.90
27026;DHT22;14565;48.626;8.978;2024-03-23T01:57:43;10.20;99.90
27026;DHT22;14565;48.626;8.978;2024-03-23T02:00:09;10.20;99.90
27026;DHT22;14565;48.626;8.978;2024-03-23T02:02:44;10.10;99.90
27026;DHT22;14565;48.626;8.978;2024-03-23T02:05:14;10.00;99.90
27026;DHT22;14565;48.626;8.978;2024-03-23T02:07:40;10.00;99.90
27026;DHT22;14565;48.626;8.978;2024-03-23T02:10:07;10.00;99.90
27026;DHT22;14565;48.626;8.978;2024-03-23T02:12:33;10.10;99.90
27026;DHT22;14565;48.626;8.978;2024-03-23T02:14:59;10.00;99.90
27026;DHT22;14565;48.626;8.978;2024-03-23T02:17:25;9.90;99.90
27026;DHT22;14565;48.626;8.978;2024-03-23T02:19:50;9.90;99.90
27026;DHT22;14565;48.626;8.978;2024-03-23T02:22:16;9.90;99.90
27026;DHT22;14565;48.626;8.978;2024-03-23T02:24:42;9.80;99.90
27026;DHT22;14565;48.626;8.978;2024-03-23T02:27:08;9.70;99.90
27026;DHT22;14565;48.626;8.978;2024-03-23T02:29:33;9.70;99.90
27026;DHT22;14565;48.626;8.978;2024-03-23T02:31:59;9.70;99.90
27026;DHT22;14565;48.626;8.978;2024-03-23T02:34:25;9.60;99.90
27026;DHT22;14565;48.626;8.978;2024-03-23T02:36:50;9.60;99.90
27026;DHT22;14565;48.626;8.978;2024-03-23T02:39:16;9.50;99.90
27026;DHT22;14565;48.626;8.978;2024-03-23T02:41:42;9.50;99.90
27026;DHT22;14565;48.626;8.978;2024-03-23T02:44:07;9.50;99.90
27026;DHT22;14565;48.626;8.978;2024-03-23T02:46:33;9.60;99.90
27026;DHT22;14565;48.626;8.978;2024-03-23T02:48:59;9.50;99.90
27026;DHT22;14565;48.626;8.978;2024-03-23T02:51:24;9.50;99.90
27026;DHT22;14565;48.626;8.978;2024-03-23T02:53:50;9.50;99.90
27026;DHT22;14565;48.626;8.978;2024-03-23T02:56:15;9.50;99.90
27026;DHT22;14565;48.626;8.978;2024-03-23T02:58:43;9.50;99.90
27026;DHT22;14565;48.626;8.978;2024-03-23T03:01:08;9.40;99.90
27026;DHT22;14565;48.626;8.978;2024-03-23T03:03:34;9.40;99.90
27026;DHT22;14565;48.626;8.978;2024-03-23T03:05:59;9.30;99.90
27026;DHT22;14565;48.626;8.978;2024-03-23T03:08:25;9.20;99.90
27026;DHT22;14565;48.626;8.978;2024-03-23T03:10:51;9.30;99.90
27026;DHT22;14565;48.626;8.978;2024-03-23T03:13:17;9.30;99.90
27026;DHT22;14565;48.626;8.978;2024-03-23T03:15:46;9.40;99.90
27026;DHT22;14565;48.626;8.978;2024-03-23T03:18:12;9.20;99.90
27026;DHT22;14565;48.626;8.978;2024-03-23T03:20:41;9.10;99.90
27026;DHT22;14565;48.626;8.978;2024-03-23T03:23:07;9.20;99.90
27026;DHT22;14565;48.626;8.978;2024-03-23T03:25:33;9.20;99.90
27026;DHT22;14565;48.626;8.978;2024-03-23T03:27:59;9.10;99.90
27026;DHT22;14565;48.626;8.978;2024-03-23T03:30:25;9.10;99.90
27026;DHT22;14565;48.626;8.978;2024-03-23T03:32:53;9.10;99.90
27026;DHT22;14565;48.626;8.978;2024-03-23T03:35:19;9.10;99.90
27026;DHT22;14565;48.626;8.978;2024-03-23T03:37:45;9.10;99.90
27026;DHT22;14565;48.626;8.978;2024-03-23T03:40:11;9.10;99.90
27026;DHT22;14565;48.626;8.978;2024-03-23T03:42:37;9.20;99.90
27026;DHT22;14565;48.626;8.978;2024-03-23T03:45:03;9.40;99.90
27026;DHT22;14565;48.626;8.978;2024-03-23T03:47:30;9.30;99.90
27026;DHT22;14565;48.626;8.978;2024-03-23T03:49:55;9.30;99.90
27026;DHT22;14565;48.626;8.978;2024-03-23T03:52:21;9.30;99.90
27026;DHT22;14565;48.626;8.978;2024-03-23T03:54:46;9.30;99.90
27026;DHT22;14565;48.626;8.978;2024-03-23T03:57:12;9.30;99.90
27026;DHT22;14565;48.626;8.978;2024-03-23T03:59:37;9.40;99.90
27026;DHT22;14565;48.626;8.978;2024-03-23T04:02:03;9.30;99.90
27026;DHT22;14565;48.626;8.978;2024-03-23T04:04:29;9.40;99.90
27026;DHT22;14565;48.626;8.978;2024-03-23T04:07:01;9.40;99.90
27026;DHT22;14565;48.626;8.978;2024-03-23T04:09:27;9.30;99.90
27026;DHT22;14565;48.626;8.978;2024-03-23T04:11:53;9.30;99.90
27026;DHT22;14565;48.626;8.978;2024-03-23T04:14:18;9.30;99.90
27026;DHT22;14565;48.626;8.978;2024-03-23T04:16:44;9.40;99.90
27026;DHT22;14565;48.626;8.978;2024-03-23T04:19:09;9.40;99.90
27026;DHT22;14565;48.626;8.978;2024-03-23T04:21:36;9.40;99.90
27026;DHT22;14565;48.626;8.978;2024-03-23T04:24:02;9.40;99.90
27026;DHT22;14565;48.626;8.978;2024-03-23T04:26:28;9.40;99.90
27026;DHT22;14565;48.626;8.978;2024-03-23T04:28:54;9.40;99.90
27026;DHT22;14565;48.626;8.978;2024-03-23T04:31:19;9.40;99.90
27026;DHT22;14565;48.626;8.978;2024-03-23T04:33:45;9.30;99.90
27026;DHT22;14565;48.626;8.978;2024-03-23T04:36:10;9.20;99.90
27026;DHT22;14565;48.626;8.978;2024-03-23T04:38:36;9.20;99.90
27026;DHT22;14565;48.626;8.978;2024-03-23T04:41:02;9.20;99.90
27026;DHT22;14565;48.626;8.978;2024-03-23T04:43:28;9.30;99.90
27026;DHT22;14565;48.626;8.978;2024-03-23T04:45:53;9.30;99.90
27026;DHT22;14565;48.626;8.978;2024-03-23T04:48:23;9.30;99.90
27026;DHT22;14565;48.626;8.978;2024-03-23T04:50:49;9.40;99.90
27026;DHT22;14565;48.626;8.978;2024-03-23T04:53:15;9.40;99.90
27026;DHT22;14565;48.626;8.978;2024-03-23T04:55:42;9.20;99.90
27026;DHT22;14565;48.626;8.978;2024-03-23T04:58:07;9.00;99.90
27026;DHT22;14565;48.626;8.978;2024-03-23T05:00:33;8.90;99.90
27026;DHT22;14565;48.626;8.978;2024-03-23T05:02:59;8.60;99.90
27026;DHT22;14565;48.626;8.978;2024-03-23T05:05:24;8.40;99.90
27026;DHT22;14565;48.626;8.978;2024-03-23T05:07:50;8.50;99.90
27026;DHT22;14565;48.626;8.978;2024-03-23T05:10:16;8.50;99.90
27026;DHT22;14565;48.626;8.978;2024-03-23T05:12:42;8.50;99.90
27026;DHT22;14565;48.626;8.978;2024-03-23T05:15:07;8.50;99.90
27026;DHT22;14565;48.626;8.978;2024-03-23T05:17:33;8.60;99.90
27026;DHT22;14565;48.626;8.978;2024-03-23T05:19:59;8.50;99.90
27026;DHT22;14565;48.626;8.978;2024-03-23T05:22:25;8.60;99.90
27026;DHT22;14565;48.626;8.978;2024-03-23T05:24:52;8.70;99.90
27026;DHT22;14565;48.626;8.978;2024-03-23T05:27:18;8.70;99.90
27026;DHT22;14565;48.626;8.978;2024-03-23T05:29:44;8.60;99.90
27026;DHT22;14565;48.626;8.978;2024-03-23T05:32:09;8.60;99.90
27026;DHT22;14565;48.626;8.978;2024-03-23T05:34:35;8.50;99.90
27026;DHT22;14565;48.626;8.978;2024-03-23T05:37:00;8.60;99.90
27026;DHT22;14565;48.626;8.978;2024-03-23T05:39:26;8.50;99.90
27026;DHT22;14565;48.626;8.978;2024-03-23T05:41:52;8.50;99.90
27026;DHT22;14565;48.626;8.978;2024-03-23T05:44:17;8.40;99.90
27026;DHT22;14565;48.626;8.978;2024-03-23T05:46:43;8.40;99.90
27026;DHT22;14565;48.626;8.978;2024-03-23T05:49:13;8.40;99.90
27026;DHT22;14565;48.626;8.978;2024-03-23T05:51:39;8.40;99.90
27026;DHT22;14565;48.626;8.978;2024-03-23T05:54:05;8.40;99.90
27026;DHT22;14565;48.626;8.978;2024-03-23T05:56:31;8.30;99.90
27026;DHT22;14565;48.626;8.978;2024-03-23T05:58:57;8.30;99.90
27026;DHT22;14565;48.626;8.978;2024-03-23T06:01:22;8.30;99.90
27026;DHT22;14565;48.626;8.978;2024-03-23T06:03:48;8.30;99.90
27026;DHT22;14565;48.626;8.978;2024-03-23T06:06:14;8.20;99.90
27026;DHT22;14565;48.626;8.978;2024-03-23T06:08:39;8.10;99.90
27026;DHT22;14565;48.626;8.978;2024-03-23T06:11:05;8.00;99.90
27026;DHT22;14565;48.626;8.978;2024-03-23T06:13:32;8.10;99.90
27026;DHT22;14565;48.626;8.978;2024-03-23T06:15:59;7.90;99.90
27026;DHT22;14565;48.626;8.978;2024-03-23T06:18:25;7.80;99.90
27026;DHT22;14565;48.626;8.978;2024-03-23T06:20:51;7.80;99.90
27026;DHT22;14565;48.626;8.978;2024-03-23T06:23:16;7.70;99.90
27026;DHT22;14565;48.626;8.978;2024-03-23T06:25:42;7.80;99.90
27026;DHT22;14565;48.626;8.978;2024-03-23T06:28:08;7.70;99.90
27026;DHT22;14565;48.626;8.978;2024-03-23T06:30:34;7.70;99.90
27026;DHT22;14565;48.626;8.978;2024-03-23T06:32:59;7.80;99.90
27026;DHT22;14565;48.626;8.978;2024-03-23T06:35:25;7.80;99.90
27026;DHT22;14565;48.626;8.978;2024-03-23T06:37:50;7.80;99.90
27026;DHT22;14565;48.626;8.978;2024-03-23T06:40:16;7.70;99.90
27026;DHT22;14565;48.626;8.978;2024-03-23T06:42:42;7.70;99.90
27026;DHT22;14565;48.626;8.978;2024-03-23T06:45:07;7.80;99.90
27026;DHT22;14565;48.626;8.978;2024-03-23T06:47:33;7.80;99.90
27026;DHT22;14565;48.626;8.978;2024-03-23T06:50:03;7.80;99.90
27026;DHT22;14565;48.626;8.978;2024-03-23T06:52:30;7.70;99.90
27026;DHT22;14565;48.626;8.978;2024-03-23T06:54:56;7.70;99.90
27026;DHT22;14565;48.626;8.978;2024-03-23T06:57:22;7.70;99.90
27026;DHT22;14565;48.626;8.978;2024-03-23T06:59:47;7.60;99.90
27026;DHT22;14565;48.626;8.978;2024-03-23T07:02:13;7.70;99.90
27026;DHT22;14565;48.626;8.978;2024-03-23T07:04:39;7.80;99.90
27026;DHT22;14565;48.626;8.978;2024-03-23T07:07:05;7.80;99.90
27026;DHT22;14565;48.626;8.978;2024-03-23T07:09:31;8.00;99.90
27026;DHT22;14565;48.626;8.978;2024-03-23T07:11:57;7.90;99.90
27026;DHT22;14565;48.626;8.978;2024-03-23T07:14:23;8.20;99.90
27026;DHT22;14565;48.626;8.978;2024-03-23T07:16:50;8.70;99.90
27026;DHT22;14565;48.626;8.978;2024-03-23T07:19:16;8.80;99.90
27026;DHT22;14565;48.626;8.978;2024-03-23T07:21:45;8.90;99.90
27026;DHT22;14565;48.626;8.978;2024-03-23T07:24:11;8.50;99.90
27026;DHT22;14565;48.626;8.978;2024-03-23T07:26:37;8.70;99.90
27026;DHT22;14565;48.626;8.978;2024-03-23T07:29:04;8.90;99.90
27026;DHT22;14565;48.626;8.978;2024-03-23T07:31:29;8.80;99.90
27026;DHT22;14565;48.626;8.978;2024-03-23T07:33:55;8.40;99.90
27026;DHT22;14565;48.626;8.978;2024-03-23T07:36:21;8.70;99.90
27026;DHT22;14565;48.626;8.978;2024-03-23T07:38:46;8.90;99.90
27026;DHT22;14565;48.626;8.978;2024-03-23T07:41:15;8.70;99.90
27026;DHT22;14565;48.626;8.978;2024-03-23T07:43:43;8.40;99.90
27026;DHT22;14565;48.626;8.978;2024-03-23T07:46:08;8.20;99.90
27026;DHT22;14565;48.626;8.978;2024-03-23T07:48:34;8.10;99.90
27026;DHT22;14565;48.626;8.978;2024-03-23T07:51:11;8.10;99.90
27026;DHT22;14565;48.626;8.978;2024-03-23T07:53:37;8.10;99.90
27026;DHT22;14565;48.626;8.978;2024-03-23T07:56:06;8.20;99.90
27026;DHT22;14565;48.626;8.978;2024-03-23T07:58:32;8.10;99.90
27026;DHT22;14565;48.626;8.978;2024-03-23T08:01:04;7.90;99.90
27026;DHT22;14565;48.626;8.978;2024-03-23T08:03:31;7.90;99.90
27026;DHT22;14565;48.626;8.978;2024-03-23T08:05:56;8.10;99.90
27026;DHT22;14565;48.626;8.978;2024-03-23T08:08:22;8.10;99.90
27026;DHT22;14565;48.626;8.978;2024-03-23T08:10:52;8.30;99.90
27026;DHT22;14565;48.626;8.978;2024-03-23T08:13:19;8.30;99.90
27026;DHT22;14565;48.626;8.978;2024-03-23T08:15:45;8.40;99.90
27026;DHT22;14565;48.626;8.978;2024-03-23T08:18:15;8.20;99.90
27026;DHT22;14565;48.626;8.978;2024-03-23T08:20:41;8.30;99.90
27026;DHT22;14565;48.626;8.978;2024-03-23T08:23:07;8.20;99.90
27026;DHT22;14565;48.626;8.978;2024-03-23T08:25:34;8.10;99.90
27026;DHT22;14565;48.626;8.978;2024-03-23T08:28:00;8.00;99.90
27026;DHT22;14565;48.626;8.978;2024-03-23T08:30:27;7.70;99.90
27026;DHT22;14565;48.626;8.978;2024-03-23T08:32:56;7.80;99.90
27026;DHT22;14565;48.626;8.978;2024-03-23T08:35:22;7.90;99.90
27026;DHT22;14565;48.626;8.978;2024-03-23T08:37:48;7.60;99.90
27026;DHT22;14565;48.626;8.978;2024-03-23T08:40:13;7.70;99.90
27026;DHT22;14565;48.626;8.978;2024-03-23T08:42:39;7.70;99.90
27026;DHT22;14565;48.626;8.978;2024-03-23T08:45:05;7.70;99.90
27026;DHT22;14565;48.626;8.978;2024-03-23T08:47:34;7.60;99.90
27026;DHT22;14565;48.626;8.978;2024-03-23T08:50:01;8.00;99.90
27026;DHT22;14565;48.626;8.978;2024-03-23T08:52:29;8.40;99.90
27026;DHT22;14565;48.626;8.978;2024-03-23T08:54:56;8.20;99.90
27026;DHT22;14565;48.626;8.978;2024-03-23T08:57:25;8.10;99.90
27026;DHT22;14565;48.626;8.978;2024-03-23T08:59:50;8.10;99.90
27026;DHT22;14565;48.626;8.978;2024-03-23T09:02:16;8.00;99.90
27026;DHT22;14565;48.626;8.978;2024-03-23T09:04:42;7.90;99.90
27026;DHT22;14565;48.626;8.978;2024-03-23T09:07:08;7.80;99.90
27026;DHT22;14565;48.626;8.978;2024-03-23T09:09:33;7.70;99.90
27026;DHT22;14565;48.626;8.978;2024-03-23T09:11:59;7.90;99.90
27026;DHT22;14565;48.626;8.978;2024-03-23T09:14:25;8.10;99.90
27026;DHT22;14565;48.626;8.978;2024-03-23T09:16:50;7.90;99.90
27026;DHT22;14565;48.626;8.978;2024-03-23T09:19:17;8.10;99.90
27026;DHT22;14565;48.626;8.978;2024-03-23T09:21:43;8.20;99.90
27026;DHT22;14565;48.626;8.978;2024-03-23T09:24:09;8.60;99.90
27026;DHT22;14565;48.626;8.978;2024-03-23T09:26:34;8.90;99.90
27026;DHT22;14565;48.626;8.978;2024-03-23T09:29:00;9.20;99.90
27026;DHT22;14565;48.626;8.978;2024-03-23T09:31:26;9.20;99.90
27026;DHT22;14565;48.626;8.978;2024-03-23T09:33:51;9.40;99.90
27026;DHT22;14565;48.626;8.978;2024-03-23T09:36:17;8.90;99.90
27026;DHT22;14565;48.626;8.978;2024-03-23T09:38:43;8.80;99.90
27026;DHT22;14565;48.626;8.978;2024-03-23T09:41:09;8.70;99.90
27026;DHT22;14565;48.626;8.978;2024-03-23T09:43:35;8.40;99.90
27026;DHT22;14565;48.626;8.978;2024-03-23T09:46:04;8.30;99.90
27026;DHT22;14565;48.626;8.978;2024-03-23T09:48:31;8.30;99.90
27026;DHT22;14565;48.626;8.978;2024-03-23T09:50:56;8.50;99.90
27026;DHT22;14565;48.626;8.978;2024-03-23T09:53:22;8.60;99.90
27026;DHT22;14565;48.626;8.978;2024-03-23T09:55:48;8.70;99.90
27026;DHT22;14565;48.626;8.978;2024-03-23T09:58:18;8.50;99.90
27026;DHT22;14565;48.626;8.978;2024-03-23T10:00:44;8.60;99.90
27026;DHT22;14565;48.626;8.978;2024-03-23T10:03:10;8.90;99.90
27026;DHT22;14565;48.626;8.978;2024-03-23T10:05:37;9.60;99.90
27026;DHT22;14565;48.626;8.978;2024-03-23T10:10:44;9.80;99.90
27026;DHT22;14565;48.626;8.978;2024-03-23T10:13:10;9.80;99.90
27026;DHT22;14565;48.626;8.978;2024-03-23T10:15:40;10.00;99.90
27026;DHT22;14565;48.626;8.978;2024-03-23T10:18:19;10.70;99.90
27026;DHT22;14565;48.626;8.978;2024-03-23T10:23:30;10.70;99.90
27026;DHT22;14565;48.626;8.978;2024-03-23T10:28:54;10.40;99.90
27026;DHT22;14565;48.626;8.978;2024-03-23T10:31:20;10.10;99.90
27026;DHT22;14565;48.626;8.978;2024-03-23T10:33:47;10.50;99.90
27026;DHT22;14565;48.626;8.978;2024-03-23T10:36:13;10.40;99.90
27026;DHT22;14565;48.626;8.978;2024-03-23T10:38:41;10.20;99.90
27026;DHT22;14565;48.626;8.978;2024-03-23T10:41:09;9.90;99.90
27026;DHT22;14565;48.626;8.978;2024-03-23T10:43:36;9.40;99.90
27026;DHT22;14565;48.626;8.978;2024-03-23T10:46:02;9.10;99.90
27026;DHT22;14565;48.626;8.978;2024-03-23T10:48:28;6.40;99.90
27026;DHT22;14565;48.626;8.978;2024-03-23T10:50:54;5.50;99.90
27026;DHT22;14565;48.626;8.978;2024-03-23T10:53:22;5.60;99.90
27026;DHT22;14565;48.626;8.978;2024-03-23T10:55:51;5.80;99.90
27026;DHT22;14565;48.626;8.978;2024-03-23T10:58:19;6.60;99.90
27026;DHT22;14565;48.626;8.978;2024-03-23T11:00:47;6.80;99.90
27026;DHT22;14565;48.626;8.978;2024-03-23T11:05:58;6.30;99.90
27026;DHT22;14565;48.626;8.978;2024-03-23T11:08:35;6.50;99.90
27026;DHT22;14565;48.626;8.978;2024-03-23T11:11:21;6.90;99.90
27026;DHT22;14565;48.626;8.978;2024-03-23T11:13:52;7.40;99.90
27026;DHT22;14565;48.626;8.978;2024-03-23T11:16:25;7.50;99.90
27026;DHT22;14565;48.626;8.978;2024-03-23T11:22:02;7.50;99.90
27026;DHT22;14565;48.626;8.978;2024-03-23T11:24:28;7.90;99.90
27026;DHT22;14565;48.626;8.978;2024-03-23T11:26:54;8.00;99.90
27026;DHT22;14565;48.626;8.978;2024-03-23T11:29:20;7.90;99.90
27026;DHT22;14565;48.626;8.978;2024-03-23T11:31:50;7.90;99.90
27026;DHT22;14565;48.626;8.978;2024-03-23T11:34:16;7.80;99.90
27026;DHT22;14565;48.626;8.978;2024-03-23T11:36:43;7.60;99.90
27026;DHT22;14565;48.626;8.978;2024-03-23T11:39:18;8.00;99.90
27026;DHT22;14565;48.626;8.978;2024-03-23T11:41:52;8.20;99.90
27026;DHT22;14565;48.626;8.978;2024-03-23T11:44:19;8.00;99.90
27026;DHT22;14565;48.626;8.978;2024-03-23T11:46:45;8.00;99.90
27026;DHT22;14565;48.626;8.978;2024-03-23T11:49:23;8.30;99.90
27026;DHT22;14565;48.626;8.978;2024-03-23T11:51:50;8.10;99.90
27026;DHT22;14565;48.626;8.978;2024-03-23T11:54:16;8.10;99.90
27026;DHT22;14565;48.626;8.978;2024-03-23T11:57:15;7.90;99.90
27026;DHT22;14565;48.626;8.978;2024-03-23T11:59:41;8.20;99.90
27026;DHT22;14565;48.626;8.978;2024-03-23T12:02:11;8.30;99.90
27026;DHT22;14565;48.626;8.978;2024-03-23T12:04:38;8.20;99.90
27026;DHT22;14565;48.626;8.978;2024-03-23T12:07:19;8.20;99.90
27026;DHT22;14565;48.626;8.978;2024-03-23T12:09:45;8.40;99.90
27026;DHT22;14565;48.626;8.978;2024-03-23T12:12:17;8.60;99.90
27026;DHT22;14565;48.626;8.978;2024-03-23T12:17:28;8.60;99.90
27026;DHT22;14565;48.626;8.978;2024-03-23T12:19:54;8.30;99.90
27026;DHT22;14565;48.626;8.978;2024-03-23T12:22:24;8.40;99.90
27026;DHT22;14565;48.626;8.978;2024-03-23T12:24:50;8.40;99.90
27026;DHT22;14565;48.626;8.978;2024-03-23T12:27:16;8.50;99.90
27026;DHT22;14565;48.626;8.978;2024-03-23T12:29:41;8.60;99.90
27026;DHT22;14565;48.626;8.978;2024-03-23T12:32:09;8.60;99.90
27026;DHT22;14565;48.626;8.978;2024-03-23T12:34:34;8.90;99.90
27026;DHT22;14565;48.626;8.978;2024-03-23T12:37:00;8.90;99.90
27026;DHT22;14565;48.626;8.978;2024-03-23T12:39:29;9.20;99.90
27026;DHT22;14565;48.626;8.978;2024-03-23T12:41:55;8.90;99.90
27026;DHT22;14565;48.626;8.978;2024-03-23T12:44:21;8.70;99.90
27026;DHT22;14565;48.626;8.978;2024-03-23T12:46:46;8.60;99.90
27026;DHT22;14565;48.626;8.978;2024-03-23T12:49:12;8.70;99.90
27026;DHT22;14565;48.626;8.978;2024-03-23T12:51:38;8.80;99.90
27026;DHT22;14565;48.626;8.978;2024-03-23T12:54:03;8.60;99.90
27026;DHT22;14565;48.626;8.978;2024-03-23T12:56:29;8.80;99.90
27026;DHT22;14565;48.626;8.978;2024-03-23T12:58:56;8.60;99.90
27026;DHT22;14565;48.626;8.978;2024-03-23T13:01:26;8.30;99.90
27026;DHT22;14565;48.626;8.978;2024-03-23T13:03:52;8.20;99.90
27026;DHT22;14565;48.626;8.978;2024-03-23T13:06:18;8.00;99.90
27026;DHT22;14565;48.626;8.978;2024-03-23T13:08:45;7.60;99.90
27026;DHT22;14565;48.626;8.978;2024-03-23T13:11:11;7.00;99.90
27026;DHT22;14565;48.626;8.978;2024-03-23T13:13:37;6.90;99.90
27026;DHT22;14565;48.626;8.978;2024-03-23T13:16:04;6.80;99.90
27026;DHT22;14565;48.626;8.978;2024-03-23T13:18:30;6.00;99.90
27026;DHT22;14565;48.626;8.978;2024-03-23T13:20:56;6.60;99.90
27026;DHT22;14565;48.626;8.978;2024-03-23T13:23:22;7.00;99.90
27026;DHT22;14565;48.626;8.978;2024-03-23T13:25:56;7.30;99.90
27026;DHT22;14565;48.626;8.978;2024-03-23T13:28:22;7.90;99.90
27026;DHT22;14565;48.626;8.978;2024-03-23T13:33:16;7.60;99.90
27026;DHT22;14565;48.626;8.978;2024-03-23T13:35:52;7.90;99.90
27026;DHT22;14565;48.626;8.978;2024-03-23T13:38:17;8.20;99.90
27026;DHT22;14565;48.626;8.978;2024-03-23T13:40:57;7.90;99.90
27026;DHT22;14565;48.626;8.978;2024-03-23T13:43:24;8.10;99.90
27026;DHT22;14565;48.626;8.978;2024-03-23T13:45:54;8.10;99.90
27026;DHT22;14565;48.626;8.978;2024-03-23T13:48:21;8.20;99.90
27026;DHT22;14565;48.626;8.978;2024-03-23T13:50:47;8.30;99.90
27026;DHT22;14565;48.626;8.978;2024-03-23T13:53:14;8.20;99.90
27026;DHT22;14565;48.626;8.978;2024-03-23T13:55:49;8.20;99.90
27026;DHT22;14565;48.626;8.978;2024-03-23T13:58:15;8.20;99.90
27026;DHT22;14565;48.626;8.978;2024-03-23T14:00:41;8.30;99.90
27026;DHT22;14565;48.626;8.978;2024-03-23T14:03:10;8.00;99.90
27026;DHT22;14565;48.626;8.978;2024-03-23T14:05:39;7.80;99.90
27026;DHT22;14565;48.626;8.978;2024-03-23T14:08:08;7.50;99.90
27026;DHT22;14565;48.626;8.978;2024-03-23T14:10:34;7.10;99.90
27026;DHT22;14565;48.626;8.978;2024-03-23T14:13:03;6.60;99.90
27026;DHT22;14565;48.626;8.978;2024-03-23T14:15:29;6.90;99.90
27026;DHT22;14565;48.626;8.978;2024-03-23T14:17:56;7.50;99.90
27026;DHT22;14565;48.626;8.978;2024-03-23T14:20:22;7.60;99.90
27026;DHT22;14565;48.626;8.978;2024-03-23T14:22:48;7.60;99.90
27026;DHT22;14565;48.626;8.978;2024-03-23T14:25:14;7.60;99.90
27026;DHT22;14565;48.626;8.978;2024-03-23T14:27:40;7.70;99.90
27026;DHT22;14565;48.626;8.978;2024-03-23T14:30:06;7.80;99.90
27026;DHT22;14565;48.626;8.978;2024-03-23T14:32:32;8.00;99.90
27026;DHT22;14565;48.626;8.978;2024-03-23T14:35:04;8.00;99.90
27026;DHT22;14565;48.626;8.978;2024-03-23T14:37:30;8.10;99.90
27026;DHT22;14565;48.626;8.978;2024-03-23T14:39:57;7.90;99.90
27026;DHT22;14565;48.626;8.978;2024-03-23T14:42:25;7.80;99.90
27026;DHT22;14565;48.626;8.978;2024-03-23T14:44:52;7.60;99.90
27026;DHT22;14565;48.626;8.978;2024-03-23T14:47:19;7.70;99.90
27026;DHT22;14565;48.626;8.978;2024-03-23T14:49:47;7.60;99.90
27026;DHT22;14565;48.626;8.978;2024-03-23T14:52:24;7.40;99.90
27026;DHT22;14565;48.626;8.978;2024-03-23T14:54:57;7.00;99.90
27026;DHT22;14565;48.626;8.978;2024-03-23T14:57:22;6.90;99.90
27026;DHT22;14565;48.626;8.978;2024-03-23T14:59:51;7.10;99.90
27026;DHT22;14565;48.626;8.978;2024-03-23T15:02:24;7.00;99.90
27026;DHT22;14565;48.626;8.978;2024-03-23T15:04:55;7.00;99.90
27026;DHT22;14565;48.626;8.978;2024-03-23T15:07:21;7.20;99.90
27026;DHT22;14565;48.626;8.978;2024-03-23T15:09:52;7.20;99.90
27026;DHT22;14565;48.626;8.978;2024-03-23T15:12:19;7.20;99.90
27026;DHT22;14565;48.626;8.978;2024-03-23T15:14:45;7.10;99.90
27026;DHT22;14565;48.626;8.978;2024-03-23T15:17:11;7.10;99.90
27026;DHT22;14565;48.626;8.978;2024-03-23T15:19:40;7.20;99.90
27026;DHT22;14565;48.626;8.978;2024-03-23T15:22:10;7.10;99.90
27026;DHT22;14565;48.626;8.978;2024-03-23T15:24:36;7.10;99.90
27026;DHT22;14565;48.626;8.978;2024-03-23T15:27:03;7.20;99.90
27026;DHT22;14565;48.626;8.978;2024-03-23T15:29:29;7.20;99.90
27026;DHT22;14565;48.626;8.978;2024-03-23T15:31:55;7.20;99.90
27026;DHT22;14565;48.626;8.978;2024-03-23T15:34:36;7.20;99.90
27026;DHT22;14565;48.626;8.978;2024-03-23T15:37:07;7.20;99.90
27026;DHT22;14565;48.626;8.978;2024-03-23T15:39:33;7.00;99.90
27026;DHT22;14565;48.626;8.978;2024-03-23T15:41:58;7.00;99.90
27026;DHT22;14565;48.626;8.978;2024-03-23T15:44:34;7.00;99.90
27026;DHT22;14565;48.626;8.978;2024-03-23T15:47:03;7.00;99.90
27026;DHT22;14565;48.626;8.978;2024-03-23T15:49:29;7.10;99.90
27026;DHT22;14565;48.626;8.978;2024-03-23T15:51:56;6.90;99.90
27026;DHT22;14565;48.626;8.978;2024-03-23T15:54:22;6.70;99.90
27026;DHT22;14565;48.626;8.978;2024-03-23T15:56:48;6.60;99.90
27026;DHT22;14565;48.626;8.978;2024-03-23T15:59:14;6.50;99.90
27026;DHT22;14565;48.626;8.978;2024-03-23T16:01:40;6.60;99.90
27026;DHT22;14565;48.626;8.978;2024-03-23T16:04:06;6.90;99.90
27026;DHT22;14565;48.626;8.978;2024-03-23T16:06:31;7.10;99.90
27026;DHT22;14565;48.626;8.978;2024-03-23T16:08:57;6.70;99.90
27026;DHT22;14565;48.626;8.978;2024-03-23T16:11:22;6.30;99.90
27026;DHT22;14565;48.626;8.978;2024-03-23T16:13:48;6.00;99.90
27026;DHT22;14565;48.626;8.978;2024-03-23T16:16:14;5.90;99.90
27026;DHT22;14565;48.626;8.978;2024-03-23T16:18:41;6.00;99.90
27026;DHT22;14565;48.626;8.978;2024-03-23T16:21:07;6.00;99.90
27026;DHT22;14565;48.626;8.978;2024-03-23T16:23:36;5.90;99.90
27026;DHT22;14565;48.626;8.978;2024-03-23T16:26:07;6.00;99.90
27026;DHT22;14565;48.626;8.978;2024-03-23T16:28:34;6.00;99.90
27026;DHT22;14565;48.626;8.978;2024-03-23T16:31:08;6.00;99.90
27026;DHT22;14565;48.626;8.978;2024-03-23T16:33:40;6.10;99.90
27026;DHT22;14565;48.626;8.978;2024-03-23T16:36:19;6.00;99.90
27026;DHT22;14565;48.626;8.978;2024-03-23T16:45:06;6.30;99.90
27026;DHT22;14565;48.626;8.978;2024-03-23T16:47:33;6.20;99.90
27026;DHT22;14565;48.626;8.978;2024-03-23T16:50:34;6.10;99.90
27026;DHT22;14565;48.626;8.978;2024-03-23T16:53:10;6.00;99.90
27026;DHT22;14565;48.626;8.978;2024-03-23T16:55:55;6.00;99.90
27026;DHT22;14565;48.626;8.978;2024-03-23T16:58:28;5.90;99.90
27026;DHT22;14565;48.626;8.978;2024-03-23T17:01:14;5.70;99.90
27026;DHT22;14565;48.626;8.978;2024-03-23T17:03:52;5.50;99.90